Time;durP1;ratioP1;P1;durP2;ratioP2;P2;SDS_P1;SDS_P2;PMS_P1;PMS_P2;Temp;Humidity;BMP_temperature;BMP_pressure;BME280_temperature;BME280_humidity;BME280_pressure;Samples;Min_cycle;Max_cycle;Signal;HPM_P1;HPM_P2
2023/08/14 00:01:26;;;;;;;6.07;4.00;;;15.60;99.90;;;;;;5093925;28;20198;-78
2023/08/14 00:03:54;;;;;;;8.25;4.07;;;15.60;99.90;;;;;;5060846;28;20206;-79
2023/08/14 00:06:21;;;;;;;6.57;4.68;;;15.60;99.90;;;;;;5075452;28;20194;-78
2023/08/14 00:08:48;;;;;;;6.13;3.95;;;15.60;99.90;;;;;;5074915;28;20226;-79
2023/08/14 00:11:16;;;;;;;5.88;4.18;;;15.60;99.90;;;;;;5075308;28;20200;-79
2023/08/14 00:13:51;;;;;;;9.00;4.53;;;15.60;99.90;;;;;;5065346;28;20222;-80
2023/08/14 00:16:17;;;;;;;8.52;4.95;;;15.60;99.90;;;;;;5056119;28;20202;-78
2023/08/14 00:18:44;;;;;;;10.20;4.80;;;15.60;99.90;;;;;;5071319;28;20297;-78
2023/08/14 00:21:11;;;;;;;11.40;5.28;;;15.70;99.90;;;;;;5075139;28;20209;-80
2023/08/14 00:23:38;;;;;;;10.88;5.63;;;15.80;99.90;;;;;;5073138;28;20202;-79
2023/08/14 00:26:06;;;;;;;7.15;4.75;;;15.80;99.90;;;;;;5056292;28;20195;-79
2023/08/14 00:28:34;;;;;;;7.15;4.78;;;15.80;99.90;;;;;;5057157;28;20304;-79
2023/08/14 00:31:01;;;;;;;6.75;4.18;;;15.80;99.90;;;;;;5070040;28;20198;-79
2023/08/14 00:33:28;;;;;;;8.38;4.50;;;15.70;99.90;;;;;;5069634;28;20583;-78
2023/08/14 00:35:54;;;;;;;5.97;4.05;;;15.90;99.90;;;;;;5072017;28;20195;-79
2023/08/14 00:38:21;;;;;;;4.90;3.75;;;15.90;99.90;;;;;;5055018;28;20315;-79
2023/08/14 00:40:48;;;;;;;8.40;4.18;;;15.80;99.90;;;;;;5069081;28;20198;-80
2023/08/14 00:43:15;;;;;;;9.35;4.38;;;15.80;99.90;;;;;;5064566;28;20665;-78
2023/08/14 00:45:43;;;;;;;6.95;4.15;;;15.80;99.90;;;;;;5069197;28;20206;-78
2023/08/14 00:48:10;;;;;;;5.65;3.95;;;15.70;99.90;;;;;;5069209;28;20233;-78
2023/08/14 00:50:37;;;;;;;4.28;3.55;;;15.80;99.90;;;;;;5060475;28;20196;-79
2023/08/14 00:53:05;;;;;;;5.22;4.10;;;15.90;99.90;;;;;;5070027;28;20194;-78
2023/08/14 00:55:32;;;;;;;4.80;3.80;;;15.90;99.90;;;;;;5075242;28;20217;-79
2023/08/14 00:57:59;;;;;;;6.85;4.18;;;15.70;99.90;;;;;;5074465;28;20214;-80
2023/08/14 01:00:28;;;;;;;5.03;4.53;;;15.30;99.90;;;;;;5075780;28;20194;-79
2023/08/14 01:02:56;;;;;;;6.18;4.65;;;15.10;99.90;;;;;;5067035;28;20202;-79
2023/08/14 01:05:23;;;;;;;7.35;4.90;;;15.10;99.90;;;;;;5055695;28;20221;-78
2023/08/14 01:07:50;;;;;;;6.63;4.45;;;15.20;99.90;;;;;;5061742;28;20253;-78
2023/08/14 01:10:17;;;;;;;5.18;3.88;;;15.30;99.90;;;;;;5060674;28;20203;-79
2023/08/14 01:12:51;;;;;;;5.30;3.50;;;15.30;99.90;;;;;;5074240;28;20263;-80
2023/08/14 01:15:23;;;;;;;6.13;4.18;;;15.10;99.90;;;;;;5069234;28;20194;-79
2023/08/14 01:17:54;;;;;;;6.32;3.50;;;14.90;99.90;;;;;;5055636;28;20206;-79
2023/08/14 01:20:25;;;;;;;7.63;4.00;;;14.80;99.90;;;;;;5056416;28;20704;-79
2023/08/14 01:23:00;;;;;;;8.20;4.57;;;14.70;99.90;;;;;;5071764;28;20278;-79
2023/08/14 01:25:30;;;;;;;5.65;3.92;;;14.80;99.90;;;;;;5056333;28;20278;-79
2023/08/14 01:27:58;;;;;;;6.07;3.83;;;14.80;99.90;;;;;;5055560;28;20230;-79
2023/08/14 01:30:26;;;;;;;6.00;3.72;;;14.90;99.90;;;;;;5063955;28;20576;-79
2023/08/14 01:32:53;;;;;;;6.40;4.07;;;14.90;99.90;;;;;;5075311;28;20199;-80
2023/08/14 01:35:22;;;;;;;6.70;4.53;;;14.80;99.90;;;;;;5059483;28;20203;-80
2023/08/14 01:37:56;;;;;;;4.57;4.00;;;14.70;99.90;;;;;;5074816;28;20213;-80
2023/08/14 01:40:32;;;;;;;6.57;4.38;;;14.90;99.90;;;;;;5070684;28;20199;-79
2023/08/14 01:43:05;;;;;;;4.97;3.90;;;15.20;99.90;;;;;;5075931;28;20206;-81
2023/08/14 01:45:35;;;;;;;5.72;3.53;;;15.30;99.90;;;;;;5066712;28;20549;-79
2023/08/14 01:48:03;;;;;;;7.15;4.40;;;15.50;99.90;;;;;;5059663;28;20686;-80
2023/08/14 01:50:31;;;;;;;4.93;3.50;;;15.50;99.90;;;;;;5061759;28;20912;-78
2023/08/14 01:52:58;;;;;;;7.15;4.00;;;15.50;99.90;;;;;;5059005;28;20677;-79
2023/08/14 01:55:26;;;;;;;5.25;3.63;;;15.20;99.90;;;;;;5065884;28;20195;-79
2023/08/14 01:57:54;;;;;;;5.88;3.67;;;15.20;99.90;;;;;;5080790;28;20205;-80
2023/08/14 02:00:21;;;;;;;5.88;3.40;;;15.30;99.90;;;;;;5071023;28;20206;-79
2023/08/14 02:02:48;;;;;;;5.70;3.60;;;15.30;99.90;;;;;;5083836;28;20277;-79
2023/08/14 02:05:15;;;;;;;7.68;4.32;;;15.30;99.90;;;;;;5062134;28;20222;-78
2023/08/14 02:07:42;;;;;;;6.07;4.90;;;15.50;99.90;;;;;;5070007;28;20203;-80
2023/08/14 02:10:10;;;;;;;5.90;4.20;;;15.50;99.90;;;;;;5076269;28;20270;-78
2023/08/14 02:12:36;;;;;;;7.10;4.85;;;15.60;99.90;;;;;;5078585;28;20201;-80
2023/08/14 02:15:06;;;;;;;10.05;5.15;;;15.70;99.90;;;;;;5075853;28;20194;-80
2023/08/14 02:17:32;;;;;;;7.25;4.85;;;15.70;99.90;;;;;;5057585;28;20634;-80
2023/08/14 02:19:59;;;;;;;7.65;4.70;;;15.60;99.90;;;;;;5058960;28;20234;-80
2023/08/14 02:22:26;;;;;;;6.88;3.97;;;15.50;99.90;;;;;;5058805;28;20199;-80
2023/08/14 02:24:53;;;;;;;7.63;4.45;;;15.60;99.90;;;;;;5068624;28;21595;-79
2023/08/14 02:27:20;;;;;;;7.60;4.78;;;15.60;99.90;;;;;;5062265;28;20194;-79
2023/08/14 02:29:47;;;;;;;11.55;5.07;;;15.40;99.90;;;;;;5077784;28;20225;-80
2023/08/14 02:32:15;;;;;;;9.27;4.47;;;15.40;99.90;;;;;;5073479;28;20197;-79
2023/08/14 02:34:46;;;;;;;7.72;4.35;;;15.10;99.90;;;;;;5058485;28;20306;-79
2023/08/14 02:37:14;;;;;;;7.43;4.32;;;14.90;99.90;;;;;;5057996;28;20657;-79
2023/08/14 02:39:41;;;;;;;8.05;4.22;;;15.10;99.90;;;;;;5058379;28;20211;-79
2023/08/14 02:42:08;;;;;;;5.40;3.78;;;15.20;99.90;;;;;;5058849;28;20190;-79
2023/08/14 02:44:35;;;;;;;6.32;3.92;;;15.00;99.90;;;;;;5058209;28;20285;-78
2023/08/14 02:47:02;;;;;;;7.18;3.90;;;15.00;99.90;;;;;;5057732;28;20226;-80
2023/08/14 02:49:31;;;;;;;6.95;4.28;;;15.00;99.90;;;;;;5057416;28;20223;-79
2023/08/14 02:51:58;;;;;;;7.22;4.82;;;15.00;99.90;;;;;;5058090;28;20719;-79
2023/08/14 02:54:25;;;;;;;7.38;4.18;;;15.00;99.90;;;;;;5058203;28;20307;-79
2023/08/14 02:56:52;;;;;;;6.57;3.92;;;14.80;99.90;;;;;;5057438;28;20211;-80
2023/08/14 02:59:19;;;;;;;4.38;3.30;;;15.00;99.90;;;;;;5057269;28;20310;-79
2023/08/14 03:01:46;;;;;;;7.90;4.00;;;14.90;99.90;;;;;;5057885;28;20313;-80
2023/08/14 03:04:14;;;;;;;6.60;3.92;;;14.90;99.90;;;;;;5057812;28;20199;-79
2023/08/14 03:06:42;;;;;;;5.75;3.75;;;14.80;99.90;;;;;;5055926;28;20205;-80
2023/08/14 03:09:09;;;;;;;5.80;4.20;;;14.90;99.90;;;;;;5057355;28;20380;-79
2023/08/14 03:11:36;;;;;;;5.90;4.13;;;14.90;99.90;;;;;;5058695;28;20203;-78
2023/08/14 03:14:02;;;;;;;7.70;4.15;;;15.00;99.90;;;;;;5058982;28;20206;-78
2023/08/14 03:16:29;;;;;;;7.75;4.30;;;15.00;99.90;;;;;;5058222;28;20297;-78
2023/08/14 03:18:56;;;;;;;11.57;4.55;;;14.90;99.90;;;;;;5057719;28;20229;-78
2023/08/14 03:21:23;;;;;;;6.85;4.15;;;14.80;99.90;;;;;;5057904;28;20205;-79
2023/08/14 03:23:54;;;;;;;8.23;4.28;;;14.70;99.90;;;;;;5058196;28;20206;-80
2023/08/14 03:26:20;;;;;;;7.25;3.90;;;14.80;99.90;;;;;;5057705;28;20210;-79
2023/08/14 03:28:47;;;;;;;7.25;4.63;;;14.80;99.90;;;;;;5056973;28;20226;-79
2023/08/14 03:31:14;;;;;;;6.43;4.10;;;14.90;99.90;;;;;;5057495;28;20206;-80
2023/08/14 03:33:41;;;;;;;7.60;4.78;;;14.90;99.90;;;;;;5057343;28;20203;-80
2023/08/14 03:36:08;;;;;;;7.43;4.68;;;15.00;99.90;;;;;;5056564;28;20209;-80
2023/08/14 03:38:34;;;;;;;6.43;4.40;;;14.90;99.90;;;;;;5055749;28;20237;-80
2023/08/14 03:41:03;;;;;;;6.78;4.43;;;14.80;99.90;;;;;;5057127;28;20226;-80
2023/08/14 03:43:30;;;;;;;8.93;4.45;;;14.90;99.90;;;;;;5056215;28;20207;-80
2023/08/14 03:45:57;;;;;;;7.35;4.43;;;14.90;99.90;;;;;;5056840;28;20203;-79
2023/08/14 03:48:24;;;;;;;5.07;3.88;;;14.90;99.90;;;;;;5057280;28;20320;-80
2023/08/14 03:50:51;;;;;;;5.20;3.40;;;14.80;99.90;;;;;;5056755;28;20202;-80
2023/08/14 03:53:18;;;;;;;4.05;3.47;;;14.70;99.90;;;;;;5057692;28;20198;-80
2023/08/14 03:55:45;;;;;;;7.18;3.85;;;14.50;99.90;;;;;;5057160;28;20205;-79
2023/08/14 03:58:13;;;;;;;8.50;4.22;;;14.60;99.90;;;;;;5056158;28;20229;-78
2023/08/14 04:00:40;;;;;;;8.32;4.28;;;14.70;99.90;;;;;;5056911;28;20202;-79
2023/08/14 04:03:07;;;;;;;6.88;4.18;;;14.60;99.90;;;;;;5056533;28;20574;-79
2023/08/14 04:05:39;;;;;;;5.22;4.10;;;14.60;99.90;;;;;;5055909;28;20298;-78
2023/08/14 04:08:06;;;;;;;7.05;4.22;;;14.70;99.90;;;;;;5054673;28;20653;-79
2023/08/14 04:10:33;;;;;;;9.60;4.18;;;14.80;99.90;;;;;;5055227;28;20213;-78
2023/08/14 04:13:00;;;;;;;8.57;4.15;;;14.90;99.90;;;;;;5056489;28;20293;-80
2023/08/14 04:15:28;;;;;;;6.82;3.80;;;15.00;99.90;;;;;;5061290;28;20228;-79
2023/08/14 04:17:56;;;;;;;5.85;4.07;;;15.10;99.90;;;;;;5091451;28;20198;-80
2023/08/14 04:20:23;;;;;;;8.23;4.03;;;15.10;99.90;;;;;;5093974;28;20200;-80
2023/08/14 04:22:49;;;;;;;7.07;3.97;;;15.10;99.90;;;;;;5093661;28;20727;-79
2023/08/14 04:25:18;;;;;;;5.88;4.18;;;15.20;99.90;;;;;;5075924;28;20258;-80
2023/08/14 04:27:45;;;;;;;5.72;3.53;;;15.40;99.90;;;;;;5075861;28;20213;-80
2023/08/14 04:30:14;;;;;;;6.28;3.97;;;15.30;99.90;;;;;;5077338;28;20221;-80
2023/08/14 04:32:42;;;;;;;5.15;3.72;;;15.20;99.90;;;;;;5080042;28;20236;-79
2023/08/14 04:35:10;;;;;;;7.95;3.95;;;15.20;99.90;;;;;;5075251;28;20578;-80
2023/08/14 04:37:37;;;;;;;8.18;3.80;;;15.30;99.90;;;;;;5074307;28;20245;-78
2023/08/14 04:40:05;;;;;;;8.60;4.20;;;15.40;99.90;;;;;;5082322;28;20202;-78
2023/08/14 04:42:33;;;;;;;5.05;3.88;;;15.10;99.90;;;;;;5071274;28;20203;-79
2023/08/14 04:45:00;;;;;;;6.28;4.03;;;15.30;99.90;;;;;;5073136;28;20207;-79
2023/08/14 04:47:27;;;;;;;6.47;3.88;;;15.30;99.90;;;;;;5056166;28;20198;-80
2023/08/14 04:49:55;;;;;;;6.82;3.88;;;15.40;99.90;;;;;;5056002;28;20321;-79
2023/08/14 04:52:22;;;;;;;5.30;3.40;;;15.60;99.90;;;;;;5056650;28;20203;-79
2023/08/14 04:54:50;;;;;;;9.55;3.80;;;15.50;99.90;;;;;;5056618;28;20213;-80
2023/08/14 04:57:18;;;;;;;4.82;3.58;;;15.50;99.90;;;;;;5055994;28;20211;-78
2023/08/14 04:59:45;;;;;;;6.53;4.60;;;15.60;99.90;;;;;;5066092;28;20210;-78
2023/08/14 05:02:12;;;;;;;5.15;4.20;;;15.80;99.90;;;;;;5072639;28;20547;-79
2023/08/14 05:04:39;;;;;;;8.30;4.65;;;15.80;99.90;;;;;;5088279;28;20204;-80
2023/08/14 05:07:07;;;;;;;6.47;5.50;;;15.70;99.90;;;;;;5071052;28;20217;-79
2023/08/14 05:09:34;;;;;;;7.10;4.47;;;15.90;99.90;;;;;;5055217;28;20257;-78
2023/08/14 05:12:01;;;;;;;7.53;4.78;;;16.00;99.90;;;;;;5055647;28;20214;-80
2023/08/14 05:14:28;;;;;;;6.80;5.60;;;16.00;99.90;;;;;;5055679;28;20214;-80
2023/08/14 05:16:55;;;;;;;12.00;5.53;;;16.20;99.90;;;;;;5055411;28;20218;-80
2023/08/14 05:19:22;;;;;;;5.47;4.50;;;16.30;99.90;;;;;;5055721;28;20214;-80
2023/08/14 05:21:49;;;;;;;4.78;4.15;;;16.60;99.90;;;;;;5055851;28;20206;-79
2023/08/14 05:24:17;;;;;;;7.85;4.30;;;16.80;99.90;;;;;;5055526;28;20207;-80
2023/08/14 05:26:44;;;;;;;6.25;4.43;;;16.80;99.90;;;;;;5055502;28;20199;-79
2023/08/14 05:29:11;;;;;;;5.97;4.38;;;16.90;99.90;;;;;;5055627;28;20237;-80
2023/08/14 05:31:37;;;;;;;8.20;4.03;;;16.90;99.90;;;;;;5058784;28;20266;-79
2023/08/14 05:34:04;;;;;;;7.57;3.80;;;16.90;99.90;;;;;;5058816;28;20638;-80
2023/08/14 05:36:31;;;;;;;7.05;4.22;;;17.10;99.90;;;;;;5060646;28;20199;-79
2023/08/14 05:38:58;;;;;;;6.55;4.32;;;16.90;99.90;;;;;;5079622;28;20316;-80
2023/08/14 05:41:26;;;;;;;7.28;4.60;;;17.00;99.90;;;;;;5099800;28;20197;-80
2023/08/14 05:43:53;;;;;;;6.95;4.30;;;17.10;99.90;;;;;;5093193;28;20211;-78
2023/08/14 05:46:23;;;;;;;5.55;4.30;;;17.00;99.90;;;;;;5061759;28;20205;-77
2023/08/14 05:48:50;;;;;;;10.15;4.28;;;17.00;99.90;;;;;;5070208;28;20252;-79
2023/08/14 05:51:17;;;;;;;6.95;4.10;;;17.00;99.90;;;;;;5075319;28;20203;-80
2023/08/14 05:53:44;;;;;;;7.57;4.32;;;17.10;99.90;;;;;;5068020;28;20257;-79
2023/08/14 05:56:11;;;;;;;8.52;4.05;;;17.30;99.90;;;;;;5089958;28;20220;-80
2023/08/14 05:58:39;;;;;;;8.40;4.60;;;17.30;99.90;;;;;;5080698;28;20601;-79
2023/08/14 06:01:06;;;;;;;5.85;3.60;;;17.30;99.90;;;;;;5078460;28;20202;-78
2023/08/14 06:03:33;;;;;;;6.35;4.07;;;17.40;99.90;;;;;;5078780;28;20298;-80
2023/08/14 06:06:00;;;;;;;6.25;4.97;;;17.50;99.90;;;;;;5078835;28;20202;-79
2023/08/14 06:08:27;;;;;;;12.57;7.43;;;17.80;99.90;;;;;;5061410;28;20265;-79
2023/08/14 06:10:54;;;;;;;13.27;7.28;;;17.80;99.90;;;;;;5066039;28;20226;-80
2023/08/14 06:13:21;;;;;;;9.50;4.60;;;17.80;99.90;;;;;;5078434;28;20613;-78
2023/08/14 06:15:49;;;;;;;7.85;4.70;;;18.00;99.90;;;;;;5079099;28;20289;-80
2023/08/14 06:18:16;;;;;;;7.88;3.90;;;18.10;99.90;;;;;;5078070;28;20795;-80
2023/08/14 06:20:43;;;;;;;7.10;4.10;;;18.30;99.90;;;;;;5077127;28;20202;-78
2023/08/14 06:23:10;;;;;;;7.85;4.00;;;18.40;99.90;;;;;;5061982;28;20242;-80
2023/08/14 06:25:37;;;;;;;7.35;4.13;;;18.60;99.90;;;;;;5057704;28;20209;-78
2023/08/14 06:28:04;;;;;;;8.55;4.15;;;18.60;99.90;;;;;;5060730;28;20214;-80
2023/08/14 06:30:31;;;;;;;8.13;3.75;;;18.80;99.90;;;;;;5086452;28;20258;-79
2023/08/14 06:33:00;;;;;;;7.90;3.75;;;18.70;99.90;;;;;;5078474;28;20289;-80
2023/08/14 06:35:27;;;;;;;7.15;3.80;;;18.80;99.90;;;;;;5078407;28;20198;-78
2023/08/14 06:37:54;;;;;;;9.07;3.88;;;19.00;99.90;;;;;;5066131;28;20218;-80
2023/08/14 06:40:21;;;;;;;8.95;3.60;;;19.20;99.90;;;;;;5058178;28;20201;-80
2023/08/14 06:42:48;;;;;;;9.35;3.95;;;19.10;99.90;;;;;;5057371;28;20669;-80
2023/08/14 06:45:16;;;;;;;6.40;3.50;;;19.40;99.90;;;;;;5058549;28;20301;-80
2023/08/14 06:47:45;;;;;;;12.88;4.32;;;19.50;99.90;;;;;;5074157;28;20290;-80
2023/08/14 06:50:14;;;;;;;8.27;4.22;;;19.50;99.90;;;;;;5075688;28;20590;-80
2023/08/14 06:52:42;;;;;;;7.57;3.90;;;19.70;99.90;;;;;;5065710;28;20210;-80
2023/08/14 06:55:09;;;;;;;8.25;4.85;;;19.70;99.90;;;;;;5058357;28;20214;-79
2023/08/14 06:57:36;;;;;;;8.55;4.10;;;19.80;99.90;;;;;;5056749;28;20286;-80
2023/08/14 07:00:06;;;;;;;7.68;3.90;;;19.90;99.90;;;;;;5066956;28;20578;-79
2023/08/14 07:02:34;;;;;;;6.63;3.95;;;20.00;99.90;;;;;;5076518;28;20215;-80
2023/08/14 07:05:00;;;;;;;7.07;4.05;;;20.20;99.90;;;;;;5077321;28;20190;-78
2023/08/14 07:07:29;;;;;;;6.28;3.60;;;20.10;99.90;;;;;;5077136;28;20674;-80
2023/08/14 07:09:56;;;;;;;7.82;3.33;;;20.40;99.90;;;;;;5075663;28;20231;-80
2023/08/14 07:12:23;;;;;;;6.15;3.65;;;20.50;99.90;;;;;;5077659;28;20285;-80
2023/08/14 07:14:49;;;;;;;8.52;3.10;;;20.60;99.90;;;;;;5077669;28;20202;-80
2023/08/14 07:17:16;;;;;;;6.10;3.30;;;20.80;99.90;;;;;;5077468;28;20200;-79
2023/08/14 07:19:43;;;;;;;6.45;3.22;;;20.90;99.90;;;;;;5085800;28;20301;-79
2023/08/14 07:22:10;;;;;;;5.72;3.00;;;21.00;99.90;;;;;;5072508;28;20203;-80
2023/08/14 07:24:38;;;;;;;5.63;3.00;;;21.10;99.90;;;;;;5078114;28;20194;-80
2023/08/14 07:27:05;;;;;;;6.40;3.45;;;21.10;99.90;;;;;;5077350;28;20213;-80
2023/08/14 07:29:32;;;;;;;6.22;3.42;;;21.10;99.90;;;;;;5066886;28;20325;-79
2023/08/14 07:31:59;;;;;;;5.10;2.92;;;21.10;99.90;;;;;;5056546;28;20209;-80
2023/08/14 07:34:26;;;;;;;6.85;3.50;;;21.00;99.90;;;;;;5057845;28;20203;-79
2023/08/14 07:36:53;;;;;;;5.15;3.30;;;21.10;99.90;;;;;;5057572;28;20203;-80
2023/08/14 07:39:19;;;;;;;8.38;3.33;;;21.10;99.90;;;;;;5056772;28;20223;-80
2023/08/14 07:41:48;;;;;;;3.90;3.08;;;21.20;99.90;;;;;;5056294;28;20673;-79
2023/08/14 07:44:14;;;;;;;5.40;3.00;;;21.20;99.90;;;;;;5055964;28;20203;-78
2023/08/14 07:46:41;;;;;;;5.22;3.08;;;21.30;99.90;;;;;;5057194;28;20211;-80
2023/08/14 07:49:08;;;;;;;5.13;2.75;;;21.40;99.90;;;;;;5056473;28;20222;-80
2023/08/14 07:51:35;;;;;;;4.55;2.67;;;21.40;99.90;;;;;;5057150;28;20227;-78
2023/08/14 07:54:01;;;;;;;7.38;3.55;;;21.40;99.90;;;;;;5077557;28;20198;-80
2023/08/14 07:56:29;;;;;;;3.70;2.55;;;21.40;99.90;;;;;;5084197;28;20201;-80
2023/08/14 07:58:57;;;;;;;6.07;2.83;;;21.50;99.90;;;;;;5071158;28;20218;-80
2023/08/14 08:01:24;;;;;;;3.35;3.05;;;21.50;99.90;;;;;;5075196;28;20198;-78
2023/08/14 08:03:51;;;;;;;5.85;3.00;;;21.60;99.90;;;;;;5056332;28;20207;-78
2023/08/14 08:06:18;;;;;;;4.82;3.17;;;21.60;99.90;;;;;;5054912;28;20207;-80
2023/08/14 08:08:45;;;;;;;6.68;3.33;;;21.70;99.90;;;;;;5055805;28;20544;-79
2023/08/14 08:11:12;;;;;;;5.30;2.80;;;21.90;99.90;;;;;;5056347;28;20608;-78
2023/08/14 08:13:38;;;;;;;3.67;2.65;;;21.90;99.90;;;;;;5056672;28;20211;-79
2023/08/14 08:16:08;;;;;;;4.25;2.78;;;21.90;99.90;;;;;;5056569;28;20206;-78
2023/08/14 08:18:38;;;;;;;5.80;3.17;;;21.90;99.90;;;;;;5055851;28;20238;-80
2023/08/14 08:21:05;;;;;;;4.35;2.80;;;21.90;99.90;;;;;;5056852;28;20253;-79
2023/08/14 08:23:32;;;;;;;5.65;3.30;;;22.10;99.90;;;;;;5056640;28;20219;-78
2023/08/14 08:25:59;;;;;;;4.90;3.08;;;22.20;99.90;;;;;;5054892;28;20203;-80
2023/08/14 08:28:26;;;;;;;3.78;2.50;;;22.20;99.90;;;;;;5056427;28;20261;-78
2023/08/14 08:30:52;;;;;;;4.50;2.65;;;22.30;99.90;;;;;;5056928;28;20602;-79
2023/08/14 08:33:21;;;;;;;5.07;2.78;;;22.60;99.90;;;;;;5075950;28;20285;-79
2023/08/14 08:35:47;;;;;;;4.03;2.78;;;22.90;99.90;;;;;;5076196;28;20194;-79
2023/08/14 08:38:14;;;;;;;5.35;2.90;;;23.10;99.90;;;;;;5076109;28;20711;-79
2023/08/14 08:40:42;;;;;;;7.07;2.80;;;23.10;99.90;;;;;;5077113;28;20194;-79
2023/08/14 08:43:10;;;;;;;6.50;3.35;;;23.20;99.90;;;;;;5076341;28;20214;-79
2023/08/14 08:45:40;;;;;;;4.13;2.67;;;23.20;99.90;;;;;;5076136;28;20585;-78
2023/08/14 08:48:08;;;;;;;3.20;2.53;;;23.30;99.90;;;;;;5075695;28;20222;-79
2023/08/14 08:50:37;;;;;;;5.20;2.92;;;23.40;99.90;;;;;;5076124;28;20232;-80
2023/08/14 08:53:05;;;;;;;3.35;2.83;;;23.60;99.90;;;;;;5075547;28;20206;-78
2023/08/14 08:55:32;;;;;;;3.45;2.50;;;23.70;99.90;;;;;;5075137;28;20206;-79
2023/08/14 08:58:00;;;;;;;4.95;2.67;;;23.80;99.90;;;;;;5076166;28;20711;-79
2023/08/14 09:00:26;;;;;;;4.43;2.50;;;24.10;99.90;;;;;;5076743;28;20194;-80
2023/08/14 09:02:53;;;;;;;3.83;2.65;;;24.20;99.90;;;;;;5076392;28;20293;-78
2023/08/14 09:05:21;;;;;;;4.40;2.45;;;24.40;99.90;;;;;;5075844;28;20604;-80
2023/08/14 09:07:49;;;;;;;2.97;2.63;;;24.20;99.90;;;;;;5076036;28;20202;-80
2023/08/14 09:10:16;;;;;;;3.97;2.50;;;24.20;99.90;;;;;;5076544;28;20348;-80
2023/08/14 09:12:43;;;;;;;7.32;3.35;;;24.20;99.90;;;;;;5076281;28;20269;-80
2023/08/14 09:15:10;;;;;;;4.88;3.10;;;24.10;99.90;;;;;;5076676;28;20229;-80
2023/08/14 09:17:37;;;;;;;4.60;2.80;;;24.00;99.90;;;;;;5075862;28;20204;-80
2023/08/14 09:20:06;;;;;;;4.00;2.80;;;24.00;99.90;;;;;;5076236;28;20210;-80
2023/08/14 09:22:33;;;;;;;4.40;2.70;;;24.20;99.90;;;;;;5076284;28;20253;-80
2023/08/14 09:25:01;;;;;;;5.05;3.10;;;24.20;99.90;;;;;;5076324;28;20205;-80
2023/08/14 09:27:28;;;;;;;5.25;2.75;;;24.60;99.90;;;;;;5076480;28;20212;-79
2023/08/14 09:29:56;;;;;;;5.20;2.72;;;25.00;99.90;;;;;;5076216;28;20721;-80
2023/08/14 09:32:23;;;;;;;4.28;2.70;;;25.30;99.90;;;;;;5076601;28;20205;-78
2023/08/14 09:34:58;;;;;;;4.55;2.88;;;25.40;99.90;;;;;;5076341;28;20198;-80
2023/08/14 09:37:25;;;;;;;3.80;2.30;;;25.80;99.90;;;;;;5075429;28;20693;-79
2023/08/14 09:40:12;;;;;;;3.28;2.63;;;26.00;99.90;;;;;;5076009;28;20222;-78
2023/08/14 09:42:39;;;;;;;2.95;2.50;;;26.40;99.90;;;;;;5076168;28;20340;-80
2023/08/14 09:45:08;;;;;;;4.43;2.80;;;26.10;99.90;;;;;;5076688;28;20293;-78
2023/08/14 09:47:35;;;;;;;3.50;2.90;;;26.00;99.90;;;;;;5075796;28;20203;-79
2023/08/14 09:50:03;;;;;;;7.10;2.95;;;25.80;99.90;;;;;;5075329;28;20210;-80
2023/08/14 09:52:30;;;;;;;6.53;2.63;;;25.60;99.90;;;;;;5076082;28;20198;-80
2023/08/14 09:54:57;;;;;;;5.15;2.72;;;25.50;99.90;;;;;;5075650;28;20198;-81
2023/08/14 09:57:26;;;;;;;3.95;2.88;;;25.50;99.90;;;;;;5075367;28;20237;-80
2023/08/14 09:59:53;;;;;;;5.15;2.58;;;25.70;99.90;;;;;;5075606;28;20222;-80
2023/08/14 10:02:24;;;;;;;5.80;2.78;;;25.70;99.90;;;;;;5075300;28;20204;-80
2023/08/14 10:04:51;;;;;;;3.42;2.70;;;25.80;99.90;;;;;;5075424;28;20202;-80
2023/08/14 10:07:19;;;;;;;5.28;2.80;;;25.80;99.90;;;;;;5075056;28;20237;-80
2023/08/14 10:09:50;;;;;;;9.85;3.10;;;25.70;99.90;;;;;;5075634;28;20329;-80
2023/08/14 10:12:19;;;;;;;4.25;2.80;;;26.00;99.90;;;;;;5075535;28;20228;-79
2023/08/14 10:14:54;;;;;;;3.80;2.80;;;26.10;99.90;;;;;;5069941;28;20199;-80
2023/08/14 10:17:30;;;;;;;3.53;2.50;;;26.50;99.90;;;;;;5059512;28;20202;-80
2023/08/14 10:19:58;;;;;;;2.45;2.20;;;26.60;99.90;;;;;;5063801;28;20226;-80
2023/08/14 10:22:25;;;;;;;3.63;2.38;;;27.20;99.90;;;;;;5070529;28;20198;-80
2023/08/14 10:24:54;;;;;;;4.53;2.90;;;27.50;99.90;;;;;;5070908;28;20198;-80
2023/08/14 10:27:21;;;;;;;7.22;2.88;;;27.70;99.90;;;;;;5078851;28;20205;-80
2023/08/14 10:29:49;;;;;;;3.33;2.75;;;27.70;99.90;;;;;;5072001;28;20229;-80
2023/08/14 10:32:17;;;;;;;5.50;3.00;;;27.30;99.90;;;;;;5078176;28;20225;-81
2023/08/14 10:34:44;;;;;;;4.25;2.72;;;27.40;99.90;;;;;;5078919;28;20285;-80
2023/08/14 10:37:25;;;;;;;3.95;2.78;;;27.30;99.90;;;;;;5059248;28;20214;-80
2023/08/14 10:39:52;;;;;;;3.15;2.50;;;27.70;99.90;;;;;;5058947;28;20605;-80
2023/08/14 10:42:19;;;;;;;3.60;2.80;;;27.80;99.90;;;;;;5058455;28;20203;-79
2023/08/14 10:44:45;;;;;;;3.47;2.97;;;28.40;99.90;;;;;;5059438;28;20213;-79
2023/08/14 10:47:14;;;;;;;5.18;2.53;;;28.50;99.90;;;;;;5059270;28;20663;-78
2023/08/14 10:49:44;;;;;;;6.80;3.03;;;28.70;99.90;;;;;;5057920;28;20231;-79
2023/08/14 10:52:15;;;;;;;3.42;2.40;;;28.40;99.90;;;;;;5057987;28;20655;-80
2023/08/14 10:54:44;;;;;;;3.55;2.80;;;28.60;99.90;;;;;;5058492;28;20214;-79
2023/08/14 10:57:12;;;;;;;5.25;2.85;;;28.30;99.90;;;;;;5058748;28;20290;-79
2023/08/14 10:59:40;;;;;;;3.95;2.50;;;29.30;99.90;;;;;;5076533;28;20227;-80
2023/08/14 11:02:15;;;;;;;5.13;2.72;;;29.50;99.90;;;;;;5086487;28;20206;-80
2023/08/14 11:04:59;;;;;;;4.50;2.60;;;29.30;99.90;;;;;;5058463;28;20206;-79
2023/08/14 11:07:29;;;;;;;3.05;2.25;;;29.90;99.90;;;;;;5058162;28;20211;-80
2023/08/14 11:09:57;;;;;;;6.07;2.67;;;29.30;99.90;;;;;;5058101;28;20223;-79
2023/08/14 11:12:24;;;;;;;4.70;2.72;;;29.80;99.90;;;;;;5057502;28;20586;-79
2023/08/14 11:14:51;;;;;;;3.33;2.88;;;29.90;99.90;;;;;;5059619;28;20205;-80
2023/08/14 11:17:19;;;;;;;6.00;3.08;;;29.70;99.90;;;;;;5077396;28;20213;-80
2023/08/14 11:19:46;;;;;;;5.63;2.65;;;29.80;99.90;;;;;;5076889;28;20590;-80
2023/08/14 11:22:13;;;;;;;4.32;2.50;;;29.70;99.90;;;;;;5079430;28;20566;-80
2023/08/14 11:24:40;;;;;;;3.45;2.90;;;29.90;99.90;;;;;;5078426;28;20574;-80
2023/08/14 11:27:07;;;;;;;6.63;2.72;;;29.90;99.90;;;;;;5078170;28;20278;-80
2023/08/14 11:29:35;;;;;;;6.10;3.08;;;30.10;99.90;;;;;;5076694;28;20229;-80
2023/08/14 11:32:02;;;;;;;3.90;2.80;;;30.00;99.90;;;;;;5078347;28;20219;-80
2023/08/14 11:34:32;;;;;;;3.67;2.70;;;29.20;99.90;;;;;;5078396;28;20206;-80
2023/08/14 11:37:01;;;;;;;4.93;2.65;;;30.10;99.90;;;;;;5079367;28;20202;-80
2023/08/14 11:39:28;;;;;;;5.20;2.90;;;29.70;99.90;;;;;;5077806;28;20283;-79
2023/08/14 11:41:55;;;;;;;6.38;2.88;;;30.10;99.90;;;;;;5077821;28;20625;-79
2023/08/14 11:44:22;;;;;;;3.55;2.70;;;29.60;99.90;;;;;;5077729;28;20202;-79
2023/08/14 11:46:49;;;;;;;3.95;2.75;;;29.40;99.90;;;;;;5077355;28;20198;-80
2023/08/14 11:49:17;;;;;;;4.43;2.83;;;29.00;99.90;;;;;;5076364;28;20219;-80
2023/08/14 11:51:46;;;;;;;3.58;2.65;;;28.80;99.90;;;;;;5077638;28;20731;-80
2023/08/14 11:54:13;;;;;;;4.55;2.67;;;28.20;99.90;;;;;;5076444;28;20202;-80
2023/08/14 11:56:40;;;;;;;4.30;2.70;;;28.20;99.90;;;;;;5077206;28;20680;-80
2023/08/14 11:59:07;;;;;;;5.65;2.83;;;28.40;99.90;;;;;;5076703;28;20723;-79
2023/08/14 12:01:36;;;;;;;5.07;2.88;;;28.10;99.90;;;;;;5077505;28;20296;-78
2023/08/14 12:04:03;;;;;;;3.85;2.40;;;28.10;99.90;;;;;;5077300;28;20586;-79
2023/08/14 12:06:31;;;;;;;8.52;3.13;;;28.30;99.90;;;;;;5079125;28;20292;-81
2023/08/14 12:08:59;;;;;;;11.45;3.00;;;28.40;99.90;;;;;;5068023;28;20215;-82
2023/08/14 12:11:27;;;;;;;4.75;2.92;;;28.50;99.90;;;;;;5071314;28;20218;-80
2023/08/14 12:13:54;;;;;;;3.88;2.38;;;28.40;99.90;;;;;;5077334;28;20859;-80
2023/08/14 12:16:22;;;;;;;4.13;2.60;;;28.80;99.90;;;;;;5076716;28;20204;-80
2023/08/14 12:18:49;;;;;;;4.60;3.03;;;28.30;99.90;;;;;;5077790;28;20256;-79
2023/08/14 12:21:16;;;;;;;4.43;2.38;;;28.50;99.90;;;;;;5078067;28;20198;-80
2023/08/14 12:23:46;;;;;;;3.30;2.60;;;28.40;99.90;;;;;;5078121;28;20209;-78
2023/08/14 12:26:15;;;;;;;5.57;3.35;;;28.10;99.90;;;;;;5078189;28;20198;-78
2023/08/14 12:28:43;;;;;;;6.60;2.88;;;28.10;99.90;;;;;;5079151;28;20332;-80
2023/08/14 12:31:10;;;;;;;4.53;2.92;;;28.00;99.90;;;;;;5078916;28;20222;-80
2023/08/14 12:33:37;;;;;;;5.55;2.80;;;28.30;99.90;;;;;;5069823;28;20653;-81
2023/08/14 12:36:04;;;;;;;6.85;3.00;;;28.30;99.90;;;;;;5059214;28;20270;-80
2023/08/14 12:38:31;;;;;;;7.38;2.92;;;28.30;99.90;;;;;;5058179;28;20230;-81
2023/08/14 12:40:57;;;;;;;6.30;2.80;;;28.20;99.90;;;;;;5059663;28;20203;-79
2023/08/14 12:43:26;;;;;;;4.00;2.80;;;28.20;99.90;;;;;;5060295;28;20587;-79
2023/08/14 12:45:52;;;;;;;4.22;3.00;;;28.50;99.90;;;;;;5062624;28;20223;-80
2023/08/14 12:48:19;;;;;;;5.43;2.70;;;28.70;99.90;;;;;;5062663;28;20250;-81